Latest Weather Observations for Gladstone

IDQ60801

Issued at 10:32 pm EST Wednesday 8 December 2021 (issued every 10 minutes, with the page automatically refreshed every 10 minutes)

About weather observations | Map of weather stations | Latest weather observations for QLD | Other Formats
Station Details ID: 039123 Name: GLADSTONE RADAR Lat: -23.86 Lon: 151.26 Height: 74.5 m
Data from the previous 72 hours. | See also: Recent months at Gladstone
Date/Time
EST
Temp
°C
App
Temp
°C
Dew
Point
°C
Rel
Hum
%
Delta-T
°C
Wind Press
QNH
hPa
Press
MSL
hPa
Rain since
9am
mm
Dir  Spd
km/h
Gust
km/h
Spd
kts
Gust
kts
08/10:30pm 25.2 28.4 22.3 84 1.9 NE 9 15 5 8 1011.7 1011.2 0.0
08/10:00pm 25.4 28.5 22.1 82 2.2 E 9 13 5 7 1012.0 1011.5 0.0
08/09:30pm 25.4 27.2 21.9 81 2.3 ENE 15 20 8 11 1011.7 1011.2 0.0
08/09:00pm 25.4 26.8 21.9 81 2.3 E 17 24 9 13 1011.8 1011.3 0.0
08/08:30pm 25.6 27.6 22.3 82 2.2 ENE 15 22 8 12 1011.7 1011.2 0.0
08/08:00pm 25.6 27.3 22.3 82 2.2 ENE 17 22 9 12 1011.3 1010.8 0.0
08/07:30pm 25.6 27.8 21.9 80 2.5 NE 13 19 7 10 1011.1 1010.6 0.0
08/07:00pm 25.7 28.0 22.0 80 2.5 ENE 13 17 7 9 1010.8 1010.3 0.0
08/06:30pm 25.9 28.0 22.4 81 2.4 NE 15 24 8 13 1010.2 1009.7 0.0
08/06:00pm 26.1 28.5 22.2 79 2.6 NE 13 24 7 13 1009.6 1009.1 0.0
08/05:30pm 26.5 29.1 22.6 79 2.6 NE 13 20 7 11 1009.0 1008.5 0.0
08/05:00pm 27.5 30.0 21.8 71 3.8 NNE 11 19 6 10 1009.1 1008.6 0.0
08/04:30pm 28.1 29.5 21.9 69 4.2 NE 17 26 9 14 1009.0 1008.5 0.0
08/04:00pm 28.6 30.0 21.9 67 4.5 NE 17 26 9 14 1009.1 1008.6 0.0
08/03:30pm 29.3 31.2 22.0 64 4.9 NE 15 22 8 12 1009.5 1009.0 0.0
08/03:00pm 30.0 32.6 22.7 65 5.0 NE 13 20 7 11 1009.8 1009.3 0.0
08/02:30pm 29.9 32.1 22.6 65 5.0 NE 15 22 8 12 1010.2 1009.7 0.0
08/02:00pm 29.6 31.0 22.6 66 4.8 ENE 19 24 10 13 1010.6 1010.1 0.0
08/01:30pm 29.8 31.5 22.3 64 5.1 ENE 17 24 9 13 1011.0 1010.5 0.0
08/01:00pm 30.1 32.2 22.5 63 5.2 ENE 15 22 8 12 1011.2 1010.7 0.0
08/12:30pm 30.3 32.4 21.7 60 5.8 NE 13 20 7 11 1011.5 1011.0 0.0
08/12:00pm 30.2 33.1 23.1 65 4.9 NE 13 20 7 11 1011.7 1011.2 0.0
08/11:30am 28.7 31.1 22.2 68 4.4 NE 13 19 7 10 1012.2 1011.7 0.0
08/11:00am 29.9 32.6 22.9 66 4.8 ENE 13 19 7 10 1012.5 1012.1 0.0
08/10:30am 29.2 32.3 22.9 69 4.3 NE 11 17 6 9 1012.6 1012.2 0.0
08/10:00am 30.0 33.3 23.2 67 4.7 NE 11 19 6 10 1012.6 1012.2 0.0
08/09:30am 29.3 32.5 23.0 69 4.3 NE 11 17 6 9 1012.7 1012.3 0.0
08/09:00am 29.9 33.9 23.8 70 4.2 NE 9 15 5 8 1012.7 1012.3 0.0
08/08:30am 28.6 32.2 23.1 72 3.8 ENE 9 17 5 9 1013.0 1012.6 0.0
08/08:00am 27.4 29.8 23.0 77 3.0 E 15 20 8 11 1012.5 1012.1 0.0
08/07:30am 27.0 29.6 22.6 77 3.0 ENE 13 19 7 10 1012.4 1012.0 0.0
08/07:00am 25.8 29.0 23.1 85 1.8 E 11 15 6 8 1012.3 1011.9 0.0
08/06:30am 24.6 27.8 22.3 87 1.5 SE 9 15 5 8 1012.3 1011.9 0.0
08/06:00am 24.2 27.5 22.5 90 1.1 SSE 9 11 5 6 1011.9 1011.4 0.0
08/05:30am 23.6 26.6 22.0 91 1.1 SSE 9 13 5 7 1011.8 1011.3 0.0
08/05:00am 23.4 26.4 22.0 92 0.9 SSE 9 13 5 7 1011.7 1011.2 0.0
08/04:30am 23.6 26.6 22.0 91 1.1 SSE 9 13 5 7 1011.4 1010.9 0.0
08/04:00am 23.9 27.0 22.2 90 1.1 SSE 9 11 5 6 1011.6 1011.1 0.0
08/03:30am 23.8 26.9 22.2 91 1.1 SE 9 15 5 8 1011.6 1011.1 0.0
08/03:00am 23.9 27.1 22.3 91 1.1 SE 9 11 5 6 1012.0 1011.5 0.0
08/02:30am 23.8 26.9 22.2 91 1.1 SE 9 13 5 7 1011.7 1011.2 0.0
08/02:00am 23.8 26.9 22.2 91 1.1 SSE 9 15 5 8 1011.7 1011.2 0.0
08/01:30am 23.9 27.0 22.2 90 1.1 SSE 9 11 5 6 1011.9 1011.4 0.0
08/01:00am 24.5 28.2 22.2 87 1.5 ENE 6 9 3 5 1012.2 1011.7 0.0
08/12:30am 24.7 28.1 22.0 85 1.8 ENE 7 11 4 6 1012.4 1012.0 0.0
08/12:00am 24.8 28.0 22.3 86 1.7 ENE 9 15 5 8 1012.5 1012.1 0.0
 
Date/Time
EST
Temp
°C
App
Temp
°C
Dew
Point
°C
Rel
Hum
%
Delta-T
°C
Wind Press
QNH
hPa
Press
MSL
hPa
Rain since
9am
mm
Dir  Spd
km/h
Gust
km/h
Spd
kts
Gust
kts
07/11:30pm 24.8 28.0 22.3 86 1.7 ENE 9 13 5 7 1012.7 1012.3 0.0
07/11:00pm 24.8 26.7 22.1 85 1.8 ENE 15 20 8 11 1012.9 1012.5 0.0
07/10:30pm 25.0 27.1 21.7 82 2.2 ENE 13 20 7 11 1013.4 1013.0 0.0
07/10:00pm 25.1 27.0 22.0 83 2.1 ENE 15 20 8 11 1013.7 1013.3 0.0
07/09:30pm 25.0 27.0 22.3 85 1.8 ENE 15 20 8 11 1013.3 1012.9 0.0
07/09:00pm 24.9 26.7 22.6 87 1.6 ENE 17 24 9 13 1012.6 1012.2 0.0
07/08:30pm 24.8 26.8 22.3 86 1.7 ENE 15 20 8 11 1012.3 1011.9 0.0
07/08:00pm 24.9 26.9 22.2 85 1.8 ENE 15 22 8 12 1012.0 1011.5 0.0
07/07:30pm 25.0 26.9 22.1 84 1.9 ENE 15 20 8 11 1011.8 1011.3 0.0
07/07:00pm 25.1 26.4 21.6 81 2.3 NE 17 24 9 13 1011.6 1011.1 0.0
07/06:30pm 25.3 26.8 21.2 78 2.7 NE 15 20 8 11 1011.6 1011.1 0.0
07/06:00pm 25.7 27.1 21.1 76 3.0 ENE 15 20 8 11 1011.3 1010.8 0.0
07/05:30pm 26.2 27.4 21.4 75 3.2 ENE 17 24 9 13 1010.6 1010.1 0.0
07/05:00pm 27.1 28.2 21.2 70 3.9 ENE 17 22 9 12 1010.4 1009.9 0.0
07/04:30pm 27.9 28.7 21.4 67 4.3 ENE 19 26 10 14 1010.2 1009.7 0.0
07/04:00pm 28.4 28.9 21.2 65 4.8 ENE 20 30 11 16 1009.8 1009.3 0.0
07/03:30pm 28.6 29.2 21.4 65 4.8 ENE 20 28 11 15 1010.2 1009.7 0.0
07/03:00pm 28.9 30.2 20.9 62 5.3 NE 15 22 8 12 1010.7 1010.2 0.0
07/02:30pm 29.5 31.8 21.4 61 5.4 NE 11 20 6 11 1011.2 1010.7 0.0
07/02:00pm 29.5 31.6 22.5 66 4.8 ENE 15 22 8 12 1011.6 1011.1 0.0
07/01:30pm 29.7 32.4 22.2 64 5.1 NE 11 20 6 11 1012.0 1011.5 0.0
07/01:00pm 29.2 30.9 21.7 64 5.1 NE 15 20 8 11 1012.1 1011.6 0.0
07/12:30pm 29.4 31.4 21.6 63 5.2 ENE 13 20 7 11 1012.4 1012.0 0.0
07/12:00pm 29.5 31.3 21.2 61 5.6 NE 13 20 7 11 1012.8 1012.4 0.0
07/11:30am 29.2 31.0 21.9 64 4.9 ENE 15 20 8 11 1012.8 1012.4 0.0
07/11:00am 29.3 31.3 22.3 66 4.8 E 15 24 8 13 1012.9 1012.5 0.0
07/10:30am 28.5 30.5 21.5 66 4.7 ENE 13 20 7 11 1013.2 1012.8 0.0
07/10:00am 29.0 31.5 21.7 64 4.9 ENE 11 20 6 11 1013.2 1012.8 0.0
07/09:30am 28.2 29.7 21.2 65 4.7 ENE 15 26 8 14 1013.3 1012.9 0.0
07/09:00am 27.6 28.4 21.4 69 4.1 ENE 19 28 10 15 1013.5 1013.1 1.0
07/08:30am 27.0 28.6 20.8 69 4.1 E 13 24 7 13 1013.9 1013.5 1.0
07/08:00am 26.3 27.0 20.4 70 3.9 ESE 17 30 9 16 1013.9 1013.5 1.0
07/07:30am 25.5 25.9 20.7 75 3.2 ESE 19 26 10 14 1013.7 1013.3 1.0
07/07:00am 24.0 25.5 20.5 81 2.3 ESE 13 26 7 14 1013.5 1013.1 1.0
07/06:30am 22.9 24.3 20.4 86 1.6 SE 13 24 7 13 1013.3 1012.9 1.0
07/06:00am 22.0 22.4 19.9 88 1.3 SE 17 26 9 14 1013.0 1012.6 1.0
07/05:30am 21.9 23.1 19.8 88 1.3 SE 13 17 7 9 1013.0 1012.6 1.0
07/05:00am 21.9 23.1 19.8 88 1.3 SSE 13 19 7 10 1012.9 1012.5 1.0
07/04:30am 22.0 23.2 19.9 88 1.3 SSE 13 22 7 12 1012.7 1012.3 1.0
07/04:00am 22.1 22.9 19.8 87 1.5 SSE 15 22 8 12 1012.6 1012.2 1.0
07/03:30am 22.1 22.6 20.0 88 1.4 SSE 17 24 9 13 1012.5 1012.1 1.0
07/03:00am 22.4 22.9 20.1 87 1.5 SE 17 24 9 13 1012.4 1012.0 1.0
07/02:30am 22.5 23.8 20.2 87 1.5 SSE 13 20 7 11 1012.6 1012.2 1.0
07/02:00am 22.5 23.6 20.4 88 1.4 SSE 15 22 8 12 1012.5 1012.1 1.0
07/01:30am 22.6 24.1 20.5 88 1.4 SE 13 20 7 11 1012.6 1012.2 1.0
07/01:00am 22.6 23.7 20.5 88 1.4 SE 15 20 8 11 1012.8 1012.4 1.0
07/12:30am 22.7 24.1 20.4 87 1.5 SSE 13 20 7 11 1013.3 1012.9 1.0
07/12:00am 22.9 24.4 20.6 87 1.5 SSE 13 19 7 10 1013.5 1013.1 1.0
 
Date/Time
EST
Temp
°C
App
Temp
°C
Dew
Point
°C
Rel
Hum
%
Delta-T
°C
Wind Press
QNH
hPa
Press
MSL
hPa
Rain since
9am
mm
Dir  Spd
km/h
Gust
km/h
Spd
kts
Gust
kts
06/11:30pm 23.2 24.3 20.5 85 1.8 ESE 15 22 8 12 1013.5 1013.1 1.0
06/11:00pm 23.4 24.5 20.5 84 1.9 SE 15 24 8 13 1013.7 1013.3 1.0
06/10:30pm 23.8 24.6 20.7 83 2.0 SE 17 28 9 15 1013.9 1013.5 1.0
06/10:00pm 24.1 24.5 20.6 81 2.3 ESE 19 32 10 17 1013.8 1013.4 1.0
06/09:30pm 24.4 25.2 21.3 83 2.0 ESE 19 28 10 15 1013.7 1013.3 1.0
06/09:00pm 24.8 23.9 20.7 78 2.7 ESE 26 37 14 20 1013.5 1013.1 1.0
06/08:30pm 24.8 23.8 20.5 77 2.8 E 26 39 14 21 1013.3 1012.9 1.0
06/08:00pm 24.9 25.4 21.2 80 2.4 E 20 30 11 16 1013.3 1012.9 1.0
06/07:30pm 24.9 25.7 21.4 81 2.3 E 19 30 10 16 1012.9 1012.5 1.0
06/07:00pm 24.9 24.1 20.8 78 2.7 ENE 26 35 14 19 1012.3 1011.9 1.0
06/06:30pm 24.9 23.2 20.6 77 2.8 E 30 39 16 21 1011.9 1011.4 1.0
06/06:00pm 25.3 24.5 20.8 76 3.0 E 26 35 14 19 1011.6 1011.1 1.0
06/05:30pm 25.5 24.4 21.0 76 3.0 E 28 39 15 21 1011.2 1010.7 1.0
06/05:00pm 26.0 24.2 20.3 71 3.7 ENE 30 41 16 22 1010.9 1010.4 1.0
06/04:30pm 26.6 24.6 19.2 64 4.8 E 28 39 15 21 1010.7 1010.2 1.0
06/04:00pm 27.6 26.3 20.7 66 4.6 E 28 39 15 21 1010.6 1010.1 1.0
06/03:30pm 27.8 26.8 21.3 67 4.3 ENE 28 39 15 21 1010.7 1010.2 1.0
06/03:00pm 28.4 28.4 21.7 67 4.5 ENE 24 39 13 21 1011.0 1010.5 1.0
06/02:30pm 28.4 27.9 21.4 66 4.7 ENE 26 35 14 19 1011.4 1010.9 1.0
06/02:00pm 28.4 27.4 21.2 65 4.8 ENE 28 39 15 21 1011.7 1011.2 1.0
06/01:30pm 29.3 28.3 21.3 62 5.4 ENE 28 35 15 19 1012.0 1011.5 1.0
06/01:00pm 29.5 29.9 22.5 66 4.8 ENE 24 35 13 19 1012.1 1011.6 1.0
06/12:30pm 29.7 30.0 22.2 64 5.1 ENE 24 35 13 19 1012.2 1011.7 0.0
06/12:00pm 29.3 29.2 21.5 63 5.2 ENE 24 35 13 19 1012.3 1011.9 0.0
06/11:30am 29.0 28.8 21.2 62 5.2 ENE 24 32 13 17 1012.7 1012.3 0.0
06/11:00am 28.2 27.0 20.0 61 5.4 E 26 35 14 19 1012.6 1012.2 0.0
06/10:30am 28.4 27.4 20.4 62 5.3 E 26 41 14 22 1012.7 1012.3 0.0
06/10:00am 27.8 27.2 20.4 64 4.9 ESE 24 39 13 21 1013.1 1012.7 0.0
06/09:30am 27.0 26.5 20.8 69 4.1 ESE 24 35 13 19 1013.3 1012.9 0.0
06/09:00am 26.8 26.6 20.6 69 4.1 ESE 22 33 12 18 1013.5 1013.1 0.0
06/08:30am 26.2 25.5 20.3 70 3.9 ESE 24 35 13 19 1013.7 1013.3 0.0
06/08:00am 26.1 27.1 21.1 74 3.3 ESE 17 30 9 16 1013.7 1013.3 0.0
06/07:30am 25.3 26.0 21.2 78 2.7 SE 19 33 10 18 1013.5 1013.1 0.0
06/07:00am 24.1 24.3 20.2 79 2.5 SE 19 33 10 18 1013.2 1012.8 0.0
06/06:30am 23.1 23.2 20.4 85 1.8 SE 20 35 11 19 1012.9 1012.5 0.0
06/06:00am 22.4 22.5 19.9 86 1.6 SE 19 30 10 16 1012.6 1012.2 0.0
06/05:30am 21.9 22.0 20.0 89 1.2 SE 19 32 10 17 1012.3 1011.9 0.0
06/05:00am 21.7 22.3 20.2 91 1.0 SE 17 30 9 16 1012.1 1011.6 0.0
06/04:30am 21.7 22.3 20.2 91 1.0 SE 17 24 9 13 1012.0 1011.5 0.0
06/04:00am 21.9 22.6 20.5 92 0.9 SE 17 26 9 14 1011.9 1011.4 0.0
06/03:30am 22.0 23.2 20.6 92 0.9 SE 15 20 8 11 1011.5 1011.0 0.0
06/03:00am 22.2 23.0 20.7 91 1.0 SE 17 26 9 14 1011.5 1011.0 0.0
06/02:30am 22.5 22.7 20.6 89 1.2 SE 20 32 11 17 1011.6 1011.1 0.0
06/02:00am 22.6 22.9 20.7 89 1.2 SE 20 30 11 16 1011.7 1011.2 0.0
06/01:30am 22.7 24.0 20.8 89 1.2 SE 15 30 8 16 1011.9 1011.4 0.0
06/01:00am 22.9 24.7 21.2 90 1.1 SE 13 20 7 11 1012.3 1011.9 0.0
06/12:30am 23.2 24.8 21.5 90 1.1 SE 15 20 8 11 1012.4 1012.0 0.0
06/12:00am 23.4 24.6 21.5 89 1.3 SSE 17 24 9 13 1012.8 1012.4 0.0
 
Date/Time
EST
Temp
°C
App
Temp
°C
Dew
Point
°C
Rel
Hum
%
Delta-T
°C
Wind Press
QNH
hPa
Press
MSL
hPa
Rain since
9am
mm
Dir  Spd
km/h
Gust
km/h
Spd
kts
Gust
kts
05/11:30pm 23.6 25.0 21.9 90 1.1 SSE 17 26 9 14 1013.1 1012.7 0.0
05/11:00pm 23.7 25.0 22.3 92 0.9 SE 19 28 10 15 1013.0 1012.6 0.0

Other formats

Comma delimited format used in spreadsheet applications
http://www.bom.gov.au/fwo/IDQ60801/IDQ60801.94380.axf

JavaScript Object Notation format (JSON) in row-major order
http://www.bom.gov.au/fwo/IDQ60801/IDQ60801.94380.json

Data quality

Most of these data are generated automatically and are frequently updated. Quality checks on data are not normally performed. It is possible for incorrect values to appear. Refer to information at About Latest Weather Observations and please check the disclaimer before using these data.